createdAt,value
2023-02-09T00:02:18.299Z,99.80
2023-02-09T00:04:47.629Z,98.50
2023-02-09T00:07:15.392Z,98.85
2023-02-09T00:09:44.918Z,99.45
2023-02-09T00:12:45.125Z,99.33
2023-02-09T00:15:12.765Z,99.22
2023-02-09T00:17:40.529Z,99.64
2023-02-09T00:20:11.235Z,100.00
2023-02-09T00:22:39.076Z,100.00
2023-02-09T00:25:07.505Z,100.00
2023-02-09T00:27:36.593Z,100.00
2023-02-09T00:30:05.541Z,100.00
2023-02-09T00:32:33.918Z,100.00
2023-02-09T00:35:01.989Z,100.00
2023-02-09T00:37:31.175Z,100.00
2023-02-09T00:39:58.963Z,100.00
2023-02-09T00:42:26.842Z,100.00
2023-02-09T00:44:54.608Z,100.00
2023-02-09T00:47:22.697Z,100.00
2023-02-09T00:49:50.469Z,100.00
2023-02-09T00:52:18.251Z,100.00
2023-02-09T00:54:47.623Z,100.00
2023-02-09T00:57:17.645Z,100.00
2023-02-09T00:59:45.587Z,100.00
2023-02-09T01:02:13.638Z,100.00
2023-02-09T01:04:41.522Z,100.00
2023-02-09T01:07:09.383Z,100.00
2023-02-09T01:09:37.901Z,100.00
2023-02-09T01:12:09.628Z,100.00
2023-02-09T01:14:39.067Z,100.00
2023-02-09T01:17:07.328Z,100.00
2023-02-09T01:19:35.939Z,100.00
2023-02-09T01:22:04.771Z,100.00
2023-02-09T01:24:32.808Z,100.00
2023-02-09T01:27:00.778Z,100.00
2023-02-09T01:29:30.169Z,100.00
2023-02-09T01:31:58.242Z,100.00
2023-02-09T01:34:26.227Z,100.00
2023-02-09T01:36:54.702Z,100.00
2023-02-09T01:39:22.717Z,100.00
2023-02-09T01:41:50.802Z,100.00
2023-02-09T01:44:56.004Z,100.00
2023-02-09T01:47:25.401Z,100.00
2023-02-09T01:49:53.369Z,100.00
2023-02-09T01:52:26.478Z,100.00
2023-02-09T01:54:58.873Z,100.00
2023-02-09T01:57:30.935Z,100.00
2023-02-09T02:00:02.507Z,100.00
2023-02-09T02:02:45.832Z,100.00
2023-02-09T02:05:14.380Z,100.00
2023-02-09T02:07:46.624Z,100.00
2023-02-09T02:10:14.551Z,100.00
2023-02-09T02:12:42.655Z,100.00
2023-02-09T02:15:12.787Z,100.00
2023-02-09T02:17:57.086Z,100.00
2023-02-09T02:21:05.508Z,100.00
2023-02-09T02:23:42.058Z,100.00
2023-02-09T02:26:49.422Z,100.00
2023-02-09T02:29:55.744Z,100.00
2023-02-09T02:32:38.389Z,100.00
2023-02-09T02:35:11.920Z,100.00
2023-02-09T02:37:52.109Z,100.00
2023-02-09T02:40:33.222Z,100.00
2023-02-09T02:43:07.613Z,100.00
2023-02-09T02:45:43.775Z,100.00
2023-02-09T02:48:24.944Z,100.00
2023-02-09T02:50:58.638Z,100.00
2023-02-09T02:53:30.755Z,100.00
2023-02-09T02:56:02.660Z,100.00
2023-02-09T02:58:31.799Z,100.00
2023-02-09T03:01:02.921Z,100.00
2023-02-09T03:03:35.439Z,100.00
2023-02-09T03:06:07.162Z,100.00
2023-02-09T03:08:48.579Z,100.00
2023-02-09T03:11:17.944Z,100.00
2023-02-09T03:14:01.121Z,100.00
2023-02-09T03:16:35.400Z,100.00
2023-02-09T03:19:14.801Z,100.00
2023-02-09T03:21:50.948Z,100.00
2023-02-09T03:24:29.182Z,100.00
2023-02-09T03:26:59.805Z,100.00
2023-02-09T03:29:30.434Z,99.97
2023-02-09T03:31:58.864Z,100.00
2023-02-09T03:34:28.646Z,100.00
2023-02-09T03:36:58.550Z,100.00
2023-02-09T03:39:26.403Z,100.00
2023-02-09T03:41:54.402Z,100.00
2023-02-09T03:44:29.121Z,100.00
2023-02-09T03:46:59.135Z,100.00
2023-02-09T03:49:31.567Z,100.00
2023-02-09T03:52:00.630Z,100.00
2023-02-09T03:54:28.569Z,99.83
2023-02-09T03:56:56.552Z,99.19
2023-02-09T03:59:25.928Z,99.11
2023-02-09T04:01:54.767Z,99.06
2023-02-09T04:04:23.392Z,99.65
2023-02-09T04:06:52.992Z,100.00
2023-02-09T04:09:21.216Z,100.00
2023-02-09T04:11:49.304Z,100.00
2023-02-09T04:14:17.506Z,100.00
2023-02-09T04:16:45.473Z,100.00
2023-02-09T04:19:13.660Z,100.00
2023-02-09T04:21:41.636Z,100.00
2023-02-09T04:24:10.944Z,100.00
2023-02-09T04:26:39.026Z,100.00
2023-02-09T04:29:06.912Z,100.00
2023-02-09T04:31:35.904Z,100.00
2023-02-09T04:34:03.956Z,100.00
2023-02-09T04:36:31.894Z,100.00
2023-02-09T04:38:59.748Z,100.00
2023-02-09T04:41:29.038Z,100.00
2023-02-09T04:43:57.055Z,100.00
2023-02-09T04:46:24.905Z,100.00
2023-02-09T04:48:52.712Z,100.00
2023-02-09T04:51:20.534Z,100.00
2023-02-09T04:53:48.353Z,99.89
2023-02-09T04:56:17.166Z,99.52
2023-02-09T04:59:04.015Z,98.38
2023-02-09T05:01:32.075Z,97.44
2023-02-09T05:03:59.968Z,97.22
2023-02-09T05:06:27.812Z,97.46
2023-02-09T05:08:55.627Z,97.12
2023-02-09T05:11:25.454Z,97.28
2023-02-09T05:13:54.703Z,98.22
2023-02-09T05:16:22.531Z,98.66
2023-02-09T05:18:51.061Z,98.18
2023-02-09T05:21:19.173Z,98.38
2023-02-09T05:23:46.945Z,98.32
2023-02-09T05:26:14.832Z,98.65
2023-02-09T05:28:42.762Z,98.46
2023-02-09T05:31:12.095Z,98.57
2023-02-09T05:33:39.884Z,98.02
2023-02-09T05:36:09.691Z,97.75
2023-02-09T05:38:37.633Z,98.30
2023-02-09T05:41:06.671Z,98.30
2023-02-09T05:43:34.466Z,98.87
2023-02-09T05:46:02.413Z,99.22
2023-02-09T05:48:31.696Z,99.66
2023-02-09T05:50:59.480Z,99.57
2023-02-09T05:53:27.292Z,99.37
2023-02-09T05:55:55.071Z,99.06
2023-02-09T05:58:22.872Z,99.05
2023-02-09T06:00:50.703Z,99.47
2023-02-09T06:03:18.528Z,98.99
2023-02-09T06:05:47.712Z,98.93
2023-02-09T06:08:15.899Z,98.71
2023-02-09T06:10:43.859Z,98.90
2023-02-09T06:13:11.892Z,98.94
2023-02-09T06:15:39.700Z,99.02
2023-02-09T06:18:07.658Z,98.82
2023-02-09T06:20:35.676Z,99.31
2023-02-09T06:23:05.355Z,99.80
2023-02-09T06:25:33.259Z,99.82
2023-02-09T06:28:02.677Z,100.00
2023-02-09T06:30:32.817Z,100.00
2023-02-09T06:33:00.768Z,100.00
2023-02-09T06:35:28.664Z,100.00
2023-02-09T06:37:58.155Z,100.00
2023-02-09T06:40:27.451Z,100.00
2023-02-09T06:42:55.317Z,100.00
2023-02-09T06:45:23.175Z,99.78
2023-02-09T06:47:50.984Z,100.00
2023-02-09T06:50:19.453Z,99.66
2023-02-09T06:52:47.572Z,99.52
2023-02-09T06:55:16.144Z,99.68
2023-02-09T06:57:45.359Z,99.47
2023-02-09T07:00:14.802Z,99.51
2023-02-09T07:02:44.094Z,100.00
2023-02-09T07:05:12.627Z,100.00
2023-02-09T07:07:40.925Z,100.00
2023-02-09T07:10:10.251Z,100.00
2023-02-09T07:12:40.530Z,100.00
2023-02-09T07:15:11.022Z,100.00
2023-02-09T07:17:39.081Z,99.77
2023-02-09T07:20:09.004Z,99.78
2023-02-09T07:22:36.983Z,99.75
2023-02-09T07:25:05.116Z,99.83
2023-02-09T07:27:33.189Z,99.55
2023-02-09T07:30:01.455Z,99.35
2023-02-09T07:32:30.765Z,100.00
2023-02-09T07:34:59.427Z,100.00
2023-02-09T07:37:27.314Z,98.95
2023-02-09T07:39:55.368Z,98.15
2023-02-09T07:42:23.515Z,97.85
2023-02-09T07:44:58.049Z,97.37
2023-02-09T07:47:25.872Z,97.65
2023-02-09T07:49:55.167Z,97.67
2023-02-09T07:52:23.049Z,98.21
2023-02-09T07:54:51.706Z,98.39
2023-02-09T07:57:19.659Z,98.96
2023-02-09T07:59:47.548Z,98.40
2023-02-09T08:02:27.225Z,98.07
2023-02-09T08:05:00.955Z,99.24
2023-02-09T08:07:35.141Z,97.57
2023-02-09T08:10:03.128Z,96.88
2023-02-09T08:12:50.364Z,96.26
2023-02-09T08:15:22.116Z,96.50
2023-02-09T08:17:52.364Z,96.52
2023-02-09T08:20:23.416Z,96.89
2023-02-09T08:22:55.518Z,96.44
2023-02-09T08:25:25.525Z,93.74
2023-02-09T08:27:54.394Z,92.94
2023-02-09T08:30:22.624Z,91.19
2023-02-09T08:32:50.864Z,90.05
2023-02-09T08:35:18.976Z,88.54
2023-02-09T08:37:48.322Z,87.25
2023-02-09T08:40:16.212Z,85.29
2023-02-09T08:42:44.148Z,82.99
2023-02-09T08:45:12.200Z,82.63
2023-02-09T08:47:40.102Z,80.78
2023-02-09T08:50:08.257Z,82.33
2023-02-09T08:52:36.256Z,80.37
2023-02-09T08:55:06.253Z,80.50
2023-02-09T08:57:43.429Z,79.75
2023-02-09T09:00:13.382Z,82.20
2023-02-09T09:02:41.293Z,79.03
2023-02-09T09:05:09.702Z,80.69
2023-02-09T09:07:37.525Z,84.67
2023-02-09T09:10:08.902Z,83.14
2023-02-09T09:12:37.516Z,80.07
2023-02-09T09:15:05.836Z,75.62
2023-02-09T09:17:33.705Z,77.05
2023-02-09T09:20:01.544Z,78.08
2023-02-09T09:22:29.436Z,80.58
2023-02-09T09:24:57.393Z,78.69
2023-02-09T09:27:27.091Z,78.44
2023-02-09T09:29:55.264Z,79.39
2023-02-09T09:32:24.845Z,79.26
2023-02-09T09:34:54.441Z,78.76
2023-02-09T09:37:23.027Z,74.30
2023-02-09T09:39:51.507Z,75.80
2023-02-09T09:42:25.421Z,74.05
2023-02-09T09:44:55.869Z,74.82
2023-02-09T09:47:37.266Z,72.43
2023-02-09T09:50:08.742Z,72.62
2023-02-09T09:52:41.356Z,69.08
2023-02-09T09:55:10.894Z,68.74
2023-02-09T09:57:44.483Z,68.68
2023-02-09T10:00:19.743Z,69.73
2023-02-09T10:02:48.169Z,69.81
2023-02-09T10:05:19.829Z,68.25
2023-02-09T10:07:55.420Z,61.82
2023-02-09T10:10:37.854Z,68.74
2023-02-09T10:13:14.498Z,68.09
2023-02-09T10:15:48.777Z,67.93
2023-02-09T10:18:18.064Z,69.58
2023-02-09T10:20:49.336Z,67.23
2023-02-09T10:23:20.197Z,61.39
2023-02-09T10:25:58.793Z,64.12
2023-02-09T10:28:29.545Z,64.61
2023-02-09T10:31:02.044Z,67.99
2023-02-09T10:33:38.486Z,66.51
2023-02-09T10:36:09.925Z,63.30
2023-02-09T10:38:41.925Z,65.54
2023-02-09T10:41:11.421Z,65.83
2023-02-09T10:43:39.451Z,65.25
2023-02-09T10:46:17.193Z,66.76
2023-02-09T10:48:47.246Z,65.91
2023-02-09T10:51:17.397Z,66.06
2023-02-09T10:53:58.372Z,68.08
2023-02-09T10:56:28.699Z,68.57
2023-02-09T10:59:01.212Z,67.36
2023-02-09T11:01:34.078Z,67.20
2023-02-09T11:04:04.580Z,64.98
2023-02-09T11:06:42.412Z,65.39
2023-02-09T11:09:15.329Z,65.49
2023-02-09T11:11:45.038Z,66.12
2023-02-09T11:14:14.805Z,64.40
2023-02-09T11:16:56.929Z,66.74
2023-02-09T11:19:53.902Z,65.17
2023-02-09T11:22:35.364Z,64.73
2023-02-09T11:25:11.975Z,64.29
2023-02-09T11:27:56.969Z,59.04
2023-02-09T11:30:50.513Z,61.07
2023-02-09T11:33:27.655Z,60.03
2023-02-09T11:36:04.959Z,61.20
2023-02-09T11:38:41.279Z,59.83
2023-02-09T11:41:28.244Z,60.37
2023-02-09T11:43:59.282Z,58.75
2023-02-09T11:46:32.616Z,63.13
2023-02-09T11:49:08.150Z,58.14
2023-02-09T11:51:40.373Z,58.62
2023-02-09T11:54:15.343Z,57.29
2023-02-09T11:56:49.354Z,57.87
2023-02-09T11:59:23.811Z,57.27
2023-02-09T12:01:58.559Z,56.58
2023-02-09T12:04:33.409Z,54.56
2023-02-09T12:07:03.687Z,54.40
2023-02-09T12:09:36.794Z,55.99
2023-02-09T12:12:24.268Z,53.75
2023-02-09T12:15:02.919Z,55.39
2023-02-09T12:17:40.350Z,55.56
2023-02-09T12:20:27.527Z,55.53
2023-02-09T12:23:07.995Z,56.73
2023-02-09T12:25:51.493Z,58.73
2023-02-09T12:28:41.132Z,57.29
2023-02-09T12:31:12.765Z,57.20
2023-02-09T12:34:01.217Z,57.51
2023-02-09T12:36:32.914Z,58.78
2023-02-09T12:39:06.462Z,59.37
2023-02-09T12:42:19.283Z,60.50
2023-02-09T12:45:00.609Z,56.69
2023-02-09T12:47:48.433Z,57.51
2023-02-09T12:50:36.322Z,58.81
2023-02-09T12:53:35.757Z,61.04
2023-02-09T12:56:25.111Z,56.64
2023-02-09T12:59:07.214Z,60.51
2023-02-09T13:02:35.831Z,60.19
2023-02-09T13:05:08.934Z,62.06
2023-02-09T13:07:49.950Z,61.61
2023-02-09T13:10:28.829Z,63.93
2023-02-09T13:13:04.518Z,60.97
2023-02-09T13:15:46.855Z,60.94
2023-02-09T13:18:21.081Z,59.66
2023-02-09T13:21:17.120Z,60.40
2023-02-09T13:23:59.284Z,60.94
2023-02-09T13:26:34.366Z,59.04
2023-02-09T13:29:20.541Z,62.16
2023-02-09T13:31:58.988Z,61.87
2023-02-09T13:34:35.577Z,61.92
2023-02-09T13:37:22.085Z,60.54
2023-02-09T13:39:57.781Z,62.05
2023-02-09T13:42:28.755Z,61.09
2023-02-09T13:44:58.419Z,59.42
2023-02-09T13:47:27.553Z,61.21
2023-02-09T13:50:01.149Z,61.57
2023-02-09T13:52:36.336Z,59.89
2023-02-09T13:55:13.951Z,62.68
2023-02-09T13:57:44.875Z,60.30
2023-02-09T14:00:24.328Z,62.17
2023-02-09T14:02:56.901Z,59.60
2023-02-09T14:05:35.473Z,58.99
2023-02-09T14:08:04.197Z,60.24
2023-02-09T14:10:35.160Z,58.63
2023-02-09T14:13:11.119Z,59.31
2023-02-09T14:16:02.746Z,62.23
2023-02-09T14:18:35.281Z,61.74
2023-02-09T14:21:14.535Z,60.75
2023-02-09T14:23:43.853Z,60.79
2023-02-09T14:26:22.623Z,60.18
2023-02-09T14:28:55.666Z,60.07
2023-02-09T14:31:26.104Z,61.38
2023-02-09T14:33:56.633Z,59.97
2023-02-09T14:36:30.164Z,61.83
2023-02-09T14:39:08.168Z,63.62
2023-02-09T14:41:36.662Z,65.22
2023-02-09T14:44:20.185Z,68.23
2023-02-09T14:46:50.441Z,68.81
2023-02-09T14:49:19.362Z,69.27
2023-02-09T14:51:49.239Z,66.71
2023-02-09T14:54:23.553Z,68.86
2023-02-09T14:56:51.900Z,68.09
2023-02-09T14:59:22.628Z,70.58
2023-02-09T15:01:52.634Z,71.04
2023-02-09T15:04:21.630Z,70.97
2023-02-09T15:06:57.580Z,70.36
2023-02-09T15:09:30.811Z,71.08
2023-02-09T15:12:07.521Z,72.47
2023-02-09T15:14:46.209Z,72.01
2023-02-09T15:17:17.057Z,72.59
2023-02-09T15:19:45.817Z,72.54
2023-02-09T15:22:16.119Z,71.99
2023-02-09T15:24:45.389Z,72.13
2023-02-09T15:27:28.355Z,71.97
2023-02-09T15:30:00.165Z,72.45
2023-02-09T15:32:29.627Z,72.62
2023-02-09T15:34:57.548Z,72.98
2023-02-09T15:37:27.822Z,74.07
2023-02-09T15:39:56.879Z,74.25
2023-02-09T15:42:42.245Z,74.92
2023-02-09T15:45:38.034Z,74.52
2023-02-09T15:48:06.441Z,75.58
2023-02-09T15:50:35.966Z,77.24
2023-02-09T15:53:06.447Z,76.79
2023-02-09T15:55:36.062Z,77.92
2023-02-09T15:58:04.461Z,77.75
2023-02-09T16:00:33.715Z,77.72
2023-02-09T16:03:15.666Z,78.05
2023-02-09T16:05:44.151Z,78.72
2023-02-09T16:08:19.021Z,80.17
2023-02-09T16:10:48.291Z,79.63
2023-02-09T16:13:17.324Z,81.14
2023-02-09T16:15:47.348Z,82.26
2023-02-09T16:18:15.542Z,83.68
2023-02-09T16:20:47.137Z,85.09
2023-02-09T16:23:20.869Z,85.90
2023-02-09T16:25:50.379Z,88.17
2023-02-09T16:28:18.749Z,89.23
2023-02-09T16:30:53.395Z,90.11
2023-02-09T16:33:22.655Z,90.90
2023-02-09T16:35:54.553Z,91.68
2023-02-09T16:38:24.280Z,92.17
2023-02-09T16:40:53.696Z,92.57
2023-02-09T16:43:22.884Z,93.33
2023-02-09T16:46:02.751Z,92.74
2023-02-09T16:48:34.457Z,91.36
2023-02-09T16:51:02.768Z,92.18
2023-02-09T16:53:36.048Z,92.19
2023-02-09T16:56:06.419Z,92.43
2023-02-09T16:58:34.536Z,92.89
2023-02-09T17:01:04.345Z,94.13
2023-02-09T17:03:37.906Z,94.41
2023-02-09T17:06:07.226Z,93.64
2023-02-09T17:08:35.829Z,94.25
2023-02-09T17:11:05.212Z,94.81
2023-02-09T17:13:33.174Z,95.30
2023-02-09T17:16:05.004Z,95.96
2023-02-09T17:18:35.467Z,97.29
2023-02-09T17:21:07.628Z,96.98
2023-02-09T17:23:36.920Z,96.88
2023-02-09T17:26:05.085Z,97.04
2023-02-09T17:28:33.137Z,97.36
2023-02-09T17:31:04.347Z,97.76
2023-02-09T17:33:34.319Z,97.65
2023-02-09T17:36:25.074Z,97.93
2023-02-09T17:38:52.191Z,98.94
2023-02-09T17:41:22.970Z,99.16
2023-02-09T17:43:51.804Z,99.91
2023-02-09T17:46:21.564Z,100.00
2023-02-09T17:48:50.101Z,100.00
2023-02-09T17:51:22.136Z,100.00
2023-02-09T17:53:50.573Z,100.00
2023-02-09T17:56:19.470Z,100.00
2023-02-09T17:58:48.380Z,100.00
2023-02-09T18:01:27.262Z,100.00
2023-02-09T18:03:56.014Z,100.00
2023-02-09T18:06:29.961Z,100.00
2023-02-09T18:08:58.087Z,100.00
2023-02-09T18:11:41.497Z,100.00
2023-02-09T18:14:11.132Z,100.00
2023-02-09T18:16:41.177Z,100.00
2023-02-09T18:19:10.820Z,100.00
2023-02-09T18:21:39.692Z,100.00
2023-02-09T18:24:08.392Z,100.00
2023-02-09T18:26:36.278Z,100.00
2023-02-09T18:29:04.206Z,98.89
2023-02-09T18:31:32.061Z,98.26
2023-02-09T18:34:01.237Z,98.00
2023-02-09T18:36:29.156Z,98.18
2023-02-09T18:38:57.473Z,96.92
2023-02-09T18:41:25.374Z,97.52
2023-02-09T18:43:54.429Z,97.45
2023-02-09T18:46:24.530Z,96.47
2023-02-09T18:48:52.482Z,95.77
2023-02-09T18:51:22.660Z,96.30
2023-02-09T18:53:51.306Z,97.15
2023-02-09T18:56:19.567Z,96.82
2023-02-09T18:58:48.585Z,97.37
2023-02-09T19:01:16.727Z,97.93
2023-02-09T19:03:44.654Z,98.57
2023-02-09T19:06:13.000Z,98.48
2023-02-09T19:08:42.397Z,99.16
2023-02-09T19:11:14.964Z,99.69
2023-02-09T19:13:42.841Z,99.80
2023-02-09T19:16:13.953Z,100.00
2023-02-09T19:18:41.803Z,99.92
2023-02-09T19:21:09.708Z,100.00
2023-02-09T19:23:37.570Z,100.00
2023-02-09T19:26:07.108Z,100.00
2023-02-09T19:28:36.306Z,99.21
2023-02-09T19:31:04.377Z,97.45
2023-02-09T19:33:32.421Z,96.76
2023-02-09T19:36:01.069Z,97.97
2023-02-09T19:38:28.950Z,98.18
2023-02-09T19:41:09.759Z,97.39
2023-02-09T19:43:39.667Z,97.68
2023-02-09T19:46:09.833Z,96.85
2023-02-09T19:48:40.265Z,96.84
2023-02-09T19:51:09.182Z,96.74
2023-02-09T19:53:37.278Z,96.32
2023-02-09T19:56:05.752Z,97.99
2023-02-09T19:58:33.626Z,98.34
2023-02-09T20:01:02.797Z,98.51
2023-02-09T20:03:31.092Z,99.00
2023-02-09T20:05:58.874Z,98.77
2023-02-09T20:08:26.875Z,98.23
2023-02-09T20:10:54.734Z,97.54
2023-02-09T20:15:56.010Z,97.01
2023-02-09T20:18:25.341Z,98.34
2023-02-09T20:20:54.400Z,98.19
2023-02-09T20:23:22.346Z,97.46
2023-02-09T20:25:50.191Z,98.00
2023-02-09T20:28:18.210Z,96.74
2023-02-09T20:30:47.858Z,97.00
2023-02-09T20:33:16.098Z,96.21
2023-02-09T20:35:46.622Z,94.83
2023-02-09T20:38:14.620Z,94.55
2023-02-09T20:40:43.912Z,94.12
2023-02-09T20:43:30.777Z,93.74
2023-02-09T20:46:30.467Z,95.09
2023-02-09T20:48:58.594Z,93.00
2023-02-09T20:51:28.062Z,90.24
2023-02-09T20:53:56.050Z,89.32
2023-02-09T20:56:24.160Z,88.47
2023-02-09T20:58:52.489Z,85.32
2023-02-09T21:01:20.490Z,84.71
2023-02-09T21:03:48.371Z,84.33
2023-02-09T21:06:16.314Z,83.47
2023-02-09T21:08:45.644Z,83.94
2023-02-09T21:11:15.221Z,84.62
2023-02-09T21:13:43.536Z,84.28
2023-02-09T21:16:13.425Z,83.73
2023-02-09T21:18:41.297Z,84.01
2023-02-09T21:21:10.334Z,85.21
2023-02-09T21:23:38.558Z,86.99
2023-02-09T21:26:10.605Z,86.47
2023-02-09T21:28:39.226Z,86.43
2023-02-09T21:31:11.008Z,87.26
2023-02-09T21:33:39.266Z,88.39
2023-02-09T21:36:08.323Z,88.38
2023-02-09T21:38:41.553Z,88.75
2023-02-09T21:41:33.272Z,88.10
2023-02-09T21:44:01.622Z,87.96
2023-02-09T21:46:30.804Z,87.99
2023-02-09T21:48:58.982Z,88.06
2023-02-09T21:51:26.953Z,87.92
2023-02-09T21:53:55.996Z,87.15
2023-02-09T21:56:26.109Z,87.75
2023-02-09T21:58:54.182Z,87.75
2023-02-09T22:01:22.183Z,88.45
2023-02-09T22:03:52.724Z,89.03
2023-02-09T22:06:20.610Z,89.54
2023-02-09T22:08:48.632Z,90.80
2023-02-09T22:11:16.487Z,92.03
2023-02-09T22:13:45.744Z,92.28
2023-02-09T22:16:19.111Z,93.58
2023-02-09T22:18:47.041Z,93.88
2023-02-09T22:21:14.975Z,92.73
2023-02-09T22:23:43.215Z,94.06
2023-02-09T22:26:12.917Z,94.46
2023-02-09T22:28:41.349Z,95.55
2023-02-09T22:31:13.283Z,95.91
2023-02-09T22:33:41.634Z,97.54
2023-02-09T22:36:13.126Z,97.80
2023-02-09T22:38:41.733Z,98.73
2023-02-09T22:41:21.443Z,99.66
2023-02-09T22:43:50.643Z,100.00
2023-02-09T22:46:20.781Z,100.00
2023-02-09T22:48:52.312Z,100.00
2023-02-09T22:51:20.480Z,100.00
2023-02-09T22:53:49.215Z,100.00
2023-02-09T22:56:17.689Z,100.00
2023-02-09T22:58:46.108Z,100.00
2023-02-09T23:01:14.322Z,100.00
2023-02-09T23:03:43.520Z,100.00
2023-02-09T23:06:15.406Z,100.00
2023-02-09T23:08:43.841Z,100.00
2023-02-09T23:11:14.760Z,100.00
2023-02-09T23:13:43.554Z,100.00
2023-02-09T23:16:13.425Z,100.00
2023-02-09T23:18:47.502Z,100.00
2023-02-09T23:21:16.141Z,100.00
2023-02-09T23:23:44.887Z,100.00
2023-02-09T23:26:13.964Z,100.00
2023-02-09T23:28:42.092Z,100.00
2023-02-09T23:31:13.112Z,100.00
2023-02-09T23:33:41.150Z,100.00
2023-02-09T23:36:12.792Z,100.00
2023-02-09T23:38:41.094Z,100.00
2023-02-09T23:41:10.531Z,100.00
2023-02-09T23:43:38.840Z,100.00
2023-02-09T23:46:08.611Z,100.00
2023-02-09T23:48:36.482Z,100.00
2023-02-09T23:51:06.880Z,100.00
2023-02-09T23:53:37.016Z,100.00
2023-02-09T23:56:04.976Z,100.00
2023-02-09T23:58:32.942Z,100.00
